Time;durP1;ratioP1;P1;durP2;ratioP2;P2;SDS_P1;SDS_P2;PMS_P1;PMS_P2;Temp;Humidity;BMP_temperature;BMP_pressure;BME280_temperature;BME280_humidity;BME280_pressure;Samples;Min_cycle;Max_cycle;Signal;HPM_P1;HPM_P2
2022/04/06 00:24:03;;;;;;;39.77;24.37;;;205.70;2227.20;;;;;;4806747;29;20062;-86
2022/04/06 00:38:29;;;;;;;36.70;22.02;;;205.40;2252.80;;;;;;4770709;30;20441;-85
2022/04/06 00:41:44;;;;;;;34.92;20.13;;;205.40;2227.20;;;;;;4717135;30;20441;-87
2022/04/06 00:44:54;;;;;;;36.25;21.40;;;205.30;2252.80;;;;;;4682034;30;20038;-86
2022/04/06 00:47:59;;;;;;;38.53;23.33;;;180.00;2252.80;;;;;;4707789;30;20041;-84
2022/04/06 00:50:44;;;;;;;35.63;22.52;;;205.00;2252.80;;;;;;4701904;30;20438;-86
2022/04/06 00:56:22;;;;;;;41.47;25.33;;;205.20;2252.80;;;;;;4673655;30;20201;-83
2022/04/06 00:59:07;;;;;;;75.68;44.88;;;205.40;2252.80;;;;;;4686205;30;20046;-84
2022/04/06 01:01:46;;;;;;;52.80;32.25;;;205.20;2252.80;;;;;;4684270;30;20141;-86
2022/04/06 01:04:21;;;;;;;52.00;31.75;;;205.20;2252.80;;;;;;4682492;30;20038;-87
2022/04/06 01:06:55;;;;;;;45.55;28.63;;;205.10;2252.80;;;;;;4671110;30;20049;-87
2022/04/06 01:09:47;;;;;;;52.83;29.52;;;205.20;2252.80;;;;;;4685534;30;20049;-86
2022/04/06 01:12:51;;;;;;;51.97;29.23;;;204.90;2252.80;;;;;;4680347;30;20128;-86
2022/04/06 01:15:34;;;;;;;47.58;26.55;;;179.90;2252.80;;;;;;4709009;29;20500;-86
2022/04/06 01:18:05;;;;;;;;;;;179.50;2252.80;;;;;;4820670;29;20507;-85
2022/04/06 01:20:33;;;;;;;39.65;22.33;;;179.40;2252.80;;;;;;4848428;29;19914;-85
2022/04/06 01:23:15;;;;;;;64.53;38.30;;;179.50;2252.80;;;;;;4834125;29;20129;-86
2022/04/06 01:29:45;;;;;;;34.92;20.10;;;179.70;2252.80;;;;;;4849365;29;20059;-85
2022/04/06 01:32:17;;;;;;;36.75;20.98;;;179.80;2252.80;;;;;;4849996;29;20030;-85
2022/04/06 01:34:49;;;;;;;38.58;20.67;;;179.60;2252.80;;;;;;4850635;29;20037;-86
2022/04/06 01:37:36;;;;;;;;;;;;;;;;;;;;;
2022/04/06 01:40:27;;;;;;;48.15;29.00;;;179.60;2252.80;;;;;;4843469;29;20030;-83
2022/04/06 01:43:55;;;;;;;33.33;20.35;;;179.80;2252.80;;;;;;4829888;29;20022;-85
2022/04/06 01:46:36;;;;;;;36.97;21.15;;;179.80;2252.80;;;;;;4844003;29;20053;-85
2022/04/06 01:53:05;;;;;;;38.85;21.52;;;180.10;2252.80;;;;;;4866103;29;20062;-86
2022/04/06 01:56:08;;;;;;;36.22;21.20;;;204.80;2252.80;;;;;;4864726;29;20058;-84
2022/04/06 02:02:32;;;;;;;32.85;20.67;;;180.10;2252.80;;;;;;4792194;29;20047;-84
2022/04/06 02:05:12;;;;;;;35.45;19.40;;;204.80;2252.80;;;;;;4863717;29;20044;-84
2022/04/06 02:07:50;;;;;;;39.10;22.75;;;204.80;2252.80;;;;;;4850034;29;20038;-84
2022/04/06 02:10:48;;;;;;;42.10;24.23;;;204.80;2252.80;;;;;;4864791;29;20028;-85
2022/04/06 02:16:52;;;;;;;40.42;26.95;;;179.80;2252.80;;;;;;4721368;30;20053;-83
2022/04/06 02:19:21;;;;;;;46.63;28.23;;;179.70;2252.80;;;;;;4726775;30;20053;-83
2022/04/06 02:22:01;;;;;;;52.22;30.58;;;179.70;2252.80;;;;;;4805078;29;20117;-84
2022/04/06 02:24:41;;;;;;;36.47;21.48;;;179.70;2252.80;;;;;;4818981;29;20026;-84
2022/04/06 02:27:09;;;;;;;27.83;16.13;;;154.40;2252.80;;;;;;4830900;29;20038;-84
2022/04/06 02:29:45;;;;;;;25.17;15.32;;;153.90;2252.80;;;;;;4818195;29;20030;-84
2022/04/06 02:32:11;;;;;;;29.83;17.55;;;154.30;2252.80;;;;;;4829331;29;20034;-83
2022/04/06 02:34:46;;;;;;;36.38;17.75;;;179.30;2252.80;;;;;;4846376;29;20052;-85
2022/04/06 02:37:13;;;;;;;35.72;19.52;;;179.40;2252.80;;;;;;4850767;29;20097;-86
2022/04/06 02:39:41;;;;;;;42.65;23.27;;;179.50;2252.80;;;;;;4835178;29;20093;-83
2022/04/06 02:42:09;;;;;;;42.35;21.73;;;179.50;2252.80;;;;;;4851101;29;20029;-84
2022/04/06 02:44:35;;;;;;;49.53;28.27;;;179.40;2252.80;;;;;;4850493;29;20158;-82
2022/04/06 02:47:02;;;;;;;36.65;23.90;;;154.40;2252.80;;;;;;4850845;29;20030;-83
2022/04/06 02:49:33;;;;;;;38.08;23.48;;;179.20;2252.80;;;;;;4850188;29;20044;-82
2022/04/06 02:52:02;;;;;;;32.78;19.50;;;179.20;2252.80;;;;;;4849907;29;20045;-83
2022/04/06 02:54:29;;;;;;;33.53;21.40;;;179.30;2252.80;;;;;;4849783;29;20125;-83
2022/04/06 02:56:56;;;;;;;31.52;18.80;;;154.40;2252.80;;;;;;4834211;29;20044;-85
2022/04/06 02:59:22;;;;;;;39.22;21.35;;;154.50;2252.80;;;;;;4847236;29;20121;-84
2022/04/06 03:01:50;;;;;;;38.72;23.45;;;179.20;2252.80;;;;;;4846957;29;20030;-82
2022/04/06 03:04:27;;;;;;;31.27;19.77;;;179.40;2252.80;;;;;;4864783;29;20065;-82
2022/04/06 03:06:58;;;;;;;39.70;23.17;;;154.20;2252.80;;;;;;4848877;29;20053;-84
2022/04/06 03:09:24;;;;;;;45.83;33.00;;;154.30;2252.80;;;;;;4850533;29;20037;-84
2022/04/06 03:11:50;;;;;;;41.75;27.90;;;154.10;2252.80;;;;;;4852690;29;20068;-83
2022/04/06 03:14:25;;;;;;;39.28;24.38;;;154.10;2252.80;;;;;;4855045;29;20060;-84
2022/04/06 03:16:54;;;;;;;39.40;24.65;;;154.10;2252.80;;;;;;4855686;29;20040;-82
2022/04/06 03:19:25;;;;;;;51.67;27.63;;;153.80;2252.80;;;;;;4871552;29;20105;-83
2022/04/06 03:21:54;;;;;;;46.42;25.17;;;153.60;2252.80;;;;;;4839574;29;20029;-83
2022/04/06 03:24:21;;;;;;;45.22;22.42;;;153.70;2252.80;;;;;;4855546;29;20077;-83
2022/04/06 03:26:49;;;;;;;37.92;20.45;;;153.90;2252.80;;;;;;4870753;29;20093;-84
2022/04/06 03:29:23;;;;;;;37.58;21.98;;;154.10;2252.80;;;;;;4855314;29;20025;-84
2022/04/06 03:32:29;;;;;;;38.13;22.75;;;153.90;2252.80;;;;;;4870452;29;20044;-84
2022/04/06 03:35:17;;;;;;;54.00;26.80;;;154.00;2252.80;;;;;;4869659;29;20037;-85
2022/04/06 03:37:47;;;;;;;35.55;21.95;;;128.90;2252.80;;;;;;4847119;29;20048;-80
2022/04/06 03:40:15;;;;;;;46.92;27.55;;;128.70;2252.80;;;;;;4847702;29;20069;-81
2022/04/06 03:42:42;;;;;;;35.13;21.75;;;128.60;2252.80;;;;;;4833164;29;20033;-78
2022/04/06 03:45:14;;;;;;;29.02;16.42;;;128.70;2252.80;;;;;;4847695;29;20030;-81
2022/04/06 03:47:47;;;;;;;29.45;17.20;;;128.90;2252.80;;;;;;4864343;29;20029;-81
2022/04/06 03:50:14;;;;;;;27.13;18.63;;;153.60;2252.80;;;;;;4832970;29;20069;-82
2022/04/06 03:52:40;;;;;;;30.88;18.50;;;128.90;2252.80;;;;;;4848264;29;20033;-81
2022/04/06 03:55:09;;;;;;;37.40;22.67;;;128.70;2252.80;;;;;;4848549;29;20077;-80
2022/04/06 03:57:42;;;;;;;34.33;21.17;;;153.60;2252.80;;;;;;4833506;29;20045;-81
2022/04/06 04:00:14;;;;;;;32.95;20.45;;;153.60;2252.80;;;;;;4848513;29;20033;-80
2022/04/06 04:02:50;;;;;;;36.80;20.77;;;128.90;2252.80;;;;;;4847903;29;20193;-80
2022/04/06 04:05:17;;;;;;;32.35;22.52;;;128.80;2252.80;;;;;;4847455;29;20026;-81
2022/04/06 04:07:47;;;;;;;32.35;17.65;;;128.70;2252.80;;;;;;4832448;29;20520;-81
2022/04/06 04:10:26;;;;;;;30.08;19.38;;;128.90;2252.80;;;;;;4864623;29;20069;-81
2022/04/06 04:12:52;;;;;;;33.80;19.30;;;128.80;2252.80;;;;;;4846916;29;20030;-80
2022/04/06 04:15:18;;;;;;;36.20;22.60;;;128.90;2252.80;;;;;;4847711;29;20069;-77
2022/04/06 04:17:48;;;;;;;35.35;22.58;;;128.70;2252.80;;;;;;4846939;29;20033;-81
2022/04/06 04:20:20;;;;;;;38.15;22.98;;;153.60;2252.80;;;;;;4847560;29;20070;-81
2022/04/06 04:22:47;;;;;;;;;;;128.90;2252.80;;;;;;4849219;29;20034;-81
2022/04/06 04:25:19;;;;;;;49.38;28.45;;;153.70;2252.80;;;;;;4847669;29;19933;-83
2022/04/06 04:27:48;;;;;;;41.38;23.27;;;153.70;2252.80;;;;;;4833852;29;20037;-79
2022/04/06 04:30:15;;;;;;;57.97;30.52;;;153.60;2252.80;;;;;;4834421;29;20041;-80
2022/04/06 04:32:41;;;;;;;78.05;37.05;;;153.70;2252.80;;;;;;4835834;29;20068;-80
2022/04/06 04:35:17;;;;;;;63.13;31.02;;;153.90;2252.80;;;;;;4836146;29;20072;-81
2022/04/06 04:37:45;;;;;;;40.28;25.75;;;153.90;2252.80;;;;;;4851473;29;20098;-81
2022/04/06 04:40:20;;;;;;;36.25;24.90;;;153.60;2252.80;;;;;;4835508;29;20029;-81
2022/04/06 04:42:48;;;;;;;38.75;22.52;;;153.80;2252.80;;;;;;4851224;29;20059;-81
2022/04/06 04:45:19;;;;;;;52.88;31.48;;;154.00;2252.80;;;;;;4868245;29;20060;-83
2022/04/06 04:47:52;;;;;;;45.25;27.77;;;154.00;2252.80;;;;;;4853603;29;20033;-79
2022/04/06 04:50:20;;;;;;;44.88;26.83;;;154.10;2252.80;;;;;;4838182;29;20041;-82
2022/04/06 04:52:49;;;;;;;72.22;41.03;;;154.30;2252.80;;;;;;4851213;29;20041;-81
2022/04/06 04:55:15;;;;;;;59.63;39.53;;;154.30;2252.80;;;;;;4853114;29;20060;-82
2022/04/06 04:57:43;;;;;;;50.88;31.00;;;154.40;2252.80;;;;;;4853686;29;20108;-83
2022/04/06 05:00:11;;;;;;;34.00;22.25;;;154.50;2252.80;;;;;;4851755;29;20033;-81
2022/04/06 05:02:39;;;;;;;46.22;27.23;;;153.90;2252.80;;;;;;4849113;29;20034;-80
2022/04/06 05:05:12;;;;;;;66.25;35.55;;;128.80;2252.80;;;;;;4853386;29;20037;-81
2022/04/06 05:07:43;;;;;;;72.00;39.38;;;153.90;2252.80;;;;;;4869998;29;20113;-83
2022/04/06 05:10:10;;;;;;;95.80;54.35;;;154.00;2252.80;;;;;;4840882;29;20057;-84
2022/04/06 05:12:40;;;;;;;115.28;67.82;;;154.30;2252.80;;;;;;4855987;29;20033;-83
2022/04/06 05:15:10;;;;;;;106.90;66.22;;;154.00;2252.80;;;;;;4864960;29;20025;-81
2022/04/06 05:17:37;;;;;;;97.95;59.67;;;154.00;2252.80;;;;;;4865502;29;20105;-81
2022/04/06 05:20:08;;;;;;;79.20;56.05;;;154.00;2252.80;;;;;;4873163;29;20061;-83
2022/04/06 05:22:50;;;;;;;82.72;53.83;;;154.30;2252.80;;;;;;4839284;29;20510;-79
2022/04/06 05:25:16;;;;;;;81.15;56.00;;;154.50;2252.80;;;;;;4837979;29;20530;-81
2022/04/06 05:27:51;;;;;;;90.75;60.85;;;179.40;2252.80;;;;;;4853869;29;20029;-82
2022/04/06 05:30:21;;;;;;;100.53;62.85;;;179.40;2252.80;;;;;;4851950;29;20101;-80
2022/04/06 05:32:51;;;;;;;77.53;54.90;;;179.50;2252.80;;;;;;4836255;29;20069;-82
2022/04/06 05:35:18;;;;;;;95.18;64.35;;;179.20;2252.80;;;;;;4851398;29;20066;-82
2022/04/06 05:37:47;;;;;;;80.05;49.70;;;179.20;2252.80;;;;;;4852024;29;20372;-84
2022/04/06 05:40:16;;;;;;;65.30;40.63;;;179.30;2252.80;;;;;;4868443;29;20030;-83
2022/04/06 05:42:46;;;;;;;67.63;42.78;;;179.40;2252.80;;;;;;4851792;29;20032;-81
2022/04/06 05:45:12;;;;;;;62.75;37.08;;;154.50;2252.80;;;;;;4836642;29;20026;-82
2022/04/06 05:47:42;;;;;;;53.83;33.17;;;154.40;2252.80;;;;;;4836446;29;20411;-82
2022/04/06 05:50:11;;;;;;;48.47;32.28;;;179.40;2252.80;;;;;;4850463;29;20061;-82
2022/04/06 05:52:41;;;;;;;49.45;28.00;;;179.50;2252.80;;;;;;4850859;29;20554;-83
2022/04/06 05:55:10;;;;;;;48.95;35.35;;;179.50;2252.80;;;;;;4867809;29;20060;-84
2022/04/06 05:57:49;;;;;;;47.75;32.50;;;179.60;2252.80;;;;;;4867431;29;20069;-79
2022/04/06 06:00:17;;;;;;;58.42;32.83;;;179.70;2252.80;;;;;;4866313;29;20022;-82
2022/04/06 06:02:43;;;;;;;57.53;32.08;;;179.90;2252.80;;;;;;4850499;29;20085;-84
2022/04/06 06:05:12;;;;;;;58.88;36.15;;;180.10;2252.80;;;;;;4865214;29;20025;-80
2022/04/06 06:07:40;;;;;;;57.50;34.78;;;180.10;2252.80;;;;;;4834795;29;20112;-84
2022/04/06 06:10:07;;;;;;;43.80;30.70;;;204.90;2252.80;;;;;;4848570;29;20026;-86
2022/04/06 06:12:34;;;;;;;44.28;31.75;;;180.10;2252.80;;;;;;4848668;29;20029;-83
2022/04/06 06:15:01;;;;;;;48.05;33.60;;;180.10;2252.80;;;;;;4847361;29;20033;-81
2022/04/06 06:17:28;;;;;;;48.30;32.40;;;180.10;2252.80;;;;;;4848525;29;20030;-84
2022/04/06 06:19:59;;;;;;;45.97;37.70;;;180.10;2252.80;;;;;;4849119;29;20060;-84
2022/04/06 06:22:31;;;;;;;45.25;33.05;;;204.90;2252.80;;;;;;4848126;29;20069;-82
2022/04/06 06:25:01;;;;;;;48.30;34.00;;;205.00;2252.80;;;;;;4846615;29;20125;-82
2022/04/06 06:28:02;;;;;;;49.53;34.53;;;205.00;2252.80;;;;;;4831928;29;20086;-82
2022/04/06 06:30:30;;;;;;;40.97;29.02;;;205.20;2252.80;;;;;;4847768;29;20061;-84
2022/04/06 06:33:19;;;;;;;40.60;25.90;;;205.20;2252.80;;;;;;4847246;29;20080;-83
2022/04/06 06:36:08;;;;;;;36.33;29.17;;;205.30;2252.80;;;;;;4831150;29;20034;-83
2022/04/06 06:38:53;;;;;;;44.72;32.95;;;205.50;2252.80;;;;;;4860395;29;20124;-82
2022/04/06 06:41:39;;;;;;;45.33;31.80;;;205.70;2252.80;;;;;;4842777;29;20034;-85
2022/04/06 06:44:39;;;;;;;40.85;29.88;;;230.40;2252.80;;;;;;4838869;29;20034;-81
2022/04/06 06:48:04;;;;;;;45.97;30.50;;;230.60;2252.80;;;;;;4828235;29;20026;-85
2022/04/06 06:51:09;;;;;;;36.55;24.83;;;230.80;2252.80;;;;;;4809513;29;20039;-84
2022/04/06 06:58:11;;;;;;;71.97;42.88;;;231.00;2252.80;;;;;;4752157;30;20117;-85
2022/04/06 07:01:38;;;;;;;33.03;21.65;;;231.20;2252.80;;;;;;4753154;30;20106;-81
2022/04/06 07:08:28;;;;;;;33.42;21.35;;;256.40;2252.80;;;;;;4771263;30;20046;-83
2022/04/06 07:11:57;;;;;;;31.13;24.65;;;256.70;2252.80;;;;;;4734971;30;20417;-84
2022/04/06 07:49:24;;;;;;;22.77;14.88;;;308.00;2278.40;;;;;;4770167;29;20111;-86
2022/04/06 07:52:02;;;;;;;24.67;15.50;;;308.10;2304.00;;;;;;4826753;29;20514;-85
2022/04/06 07:58:19;;;;;;;24.10;16.73;;;332.90;2304.00;;;;;;4840831;29;20090;-84
2022/04/06 08:00:46;;;;;;;19.30;12.10;;;333.10;2278.40;;;;;;4825309;29;20034;-85
2022/04/06 08:03:15;;;;;;;19.42;12.80;;;333.30;2252.80;;;;;;4840894;29;20117;-85
2022/04/06 08:05:44;;;;;;;21.00;13.05;;;333.40;2252.80;;;;;;4825782;29;20111;-85
2022/04/06 08:08:46;;;;;;;;;;;;;;;;;;;;;
2022/04/06 08:12:23;;;;;;;;;;;;;;;;;;;;;
2022/04/06 08:18:21;;;;;;;20.42;10.52;;;358.60;2201.60;;;;;;4718771;30;20876;-80
2022/04/06 08:20:48;;;;;;;21.00;10.57;;;358.60;2150.40;;;;;;4765485;30;20036;-82
2022/04/06 08:23:38;;;;;;;19.02;10.93;;;358.80;2150.40;;;;;;4833903;29;20282;-83
2022/04/06 08:26:39;;;;;;;20.63;13.65;;;359.00;2124.80;;;;;;4860796;29;20030;-81
2022/04/06 08:29:05;;;;;;;15.55;11.82;;;359.10;2124.80;;;;;;4859556;29;20041;-81
2022/04/06 08:31:31;;;;;;;18.70;11.07;;;359.10;2124.80;;;;;;4844348;29;20032;-78
2022/04/06 08:33:57;;;;;;;15.95;11.20;;;384.10;2099.20;;;;;;4849962;29;20049;-76
2022/04/06 08:36:24;;;;;;;19.30;11.65;;;384.00;2073.60;;;;;;4863630;29;20038;-80
2022/04/06 08:38:53;;;;;;;19.10;13.45;;;384.10;2048.00;;;;;;4845012;29;20038;-78
2022/04/06 08:41:32;;;;;;;16.00;12.40;;;384.40;2048.00;;;;;;4846705;29;20060;-79
2022/04/06 08:44:48;;;;;;;19.17;11.40;;;384.70;2022.40;;;;;;4845819;29;20033;-77
2022/04/06 08:47:14;;;;;;;20.63;9.90;;;384.70;1996.80;;;;;;4857313;29;20048;-77
2022/04/06 08:49:41;;;;;;;18.27;10.75;;;409.60;1996.80;;;;;;4844357;29;20035;-80
2022/04/06 08:52:10;;;;;;;14.68;10.55;;;409.60;1996.80;;;;;;4844163;29;20029;-78
2022/04/06 08:54:38;;;;;;;13.90;9.13;;;409.80;1971.20;;;;;;4844314;29;20037;-77
2022/04/06 08:57:05;;;;;;;19.02;10.68;;;409.70;1945.60;;;;;;4844579;29;20026;-79
2022/04/06 08:59:32;;;;;;;15.18;8.55;;;409.90;1971.20;;;;;;4848080;29;20033;-77
2022/04/06 09:01:58;;;;;;;13.88;10.05;;;410.00;1945.60;;;;;;4849627;29;20065;-78
2022/04/06 09:04:25;;;;;;;19.13;11.27;;;410.00;1920.00;;;;;;4852516;29;20403;-79
2022/04/06 09:06:51;;;;;;;18.35;10.25;;;410.30;1920.00;;;;;;4851434;29;20030;-78
2022/04/06 09:09:22;;;;;;;13.25;9.23;;;410.40;1920.00;;;;;;4851786;29;20033;-78
2022/04/06 09:11:48;;;;;;;13.18;9.50;;;410.50;1920.00;;;;;;4853287;29;20057;-76
2022/04/06 09:14:14;;;;;;;15.40;8.45;;;410.50;1945.60;;;;;;4853942;29;20085;-76
2022/04/06 09:16:40;;;;;;;15.88;10.57;;;435.50;1920.00;;;;;;4855124;29;20471;-77
2022/04/06 09:19:11;;;;;;;14.68;7.60;;;435.50;1868.80;;;;;;4856319;29;20040;-77
2022/04/06 09:21:40;;;;;;;13.30;7.10;;;435.60;1843.20;;;;;;4854120;29;20038;-83
2022/04/06 09:24:16;;;;;;;19.90;9.10;;;435.70;1792.00;;;;;;4848097;29;20061;-81
2022/04/06 09:26:42;;;;;;;14.27;7.30;;;435.80;1843.20;;;;;;4847624;29;20509;-78
2022/04/06 09:29:12;;;;;;;16.98;8.25;;;435.80;1817.60;;;;;;4848077;29;20041;-77
2022/04/06 09:31:40;;;;;;;12.57;7.13;;;436.00;1817.60;;;;;;4847700;29;20513;-77
2022/04/06 09:34:11;;;;;;;18.55;8.35;;;436.10;1792.00;;;;;;4863807;29;20160;-79
2022/04/06 09:36:38;;;;;;;11.98;6.53;;;460.90;1792.00;;;;;;4847704;29;20120;-79
2022/04/06 09:39:05;;;;;;;13.75;7.05;;;461.00;1792.00;;;;;;4847323;29;20489;-80
2022/04/06 09:41:33;;;;;;;16.50;8.20;;;461.10;1792.00;;;;;;4847333;29;20034;-77
2022/04/06 09:47:38;;;;;;;11.65;6.75;;;461.20;1792.00;;;;;;4847385;29;20506;-77
2022/04/06 09:50:20;;;;;;;12.23;6.43;;;461.40;1715.20;;;;;;4864115;29;20059;-78
2022/04/06 09:52:47;;;;;;;13.38;7.72;;;461.50;1689.60;;;;;;4847188;29;20030;-78
2022/04/06 09:55:17;;;;;;;14.88;7.72;;;486.40;1689.60;;;;;;4846948;29;20029;-77
2022/04/06 09:57:50;;;;;;;17.65;7.07;;;486.60;1689.60;;;;;;4847056;29;20037;-78
2022/04/06 10:00:16;;;;;;;;;;;486.70;1664.00;;;;;;4864109;29;20042;-77
2022/04/06 10:02:44;;;;;;;12.52;6.75;;;486.70;1664.00;;;;;;4846888;29;19964;-77
2022/04/06 10:05:15;;;;;;;13.55;7.20;;;486.80;1689.60;;;;;;4846711;29;20034;-76
2022/04/06 10:07:43;;;;;;;12.10;7.50;;;486.90;1664.00;;;;;;4846250;29;20059;-78
2022/04/06 10:10:10;;;;;;;12.13;6.70;;;487.10;1664.00;;;;;;4863505;29;20033;-78
2022/04/06 10:12:36;;;;;;;13.35;7.38;;;487.30;1664.00;;;;;;4846671;29;20029;-77
2022/04/06 10:15:02;;;;;;;11.30;6.28;;;512.10;1689.60;;;;;;4846538;29;20120;-76
2022/04/06 10:17:31;;;;;;;14.02;5.80;;;512.40;1587.20;;;;;;4846658;29;20030;-77
2022/04/06 10:20:19;;;;;;;11.57;6.40;;;512.40;1587.20;;;;;;4846430;29;20062;-78
2022/04/06 10:23:00;;;;;;;12.82;6.80;;;512.60;1612.80;;;;;;4862399;29;20062;-78
2022/04/06 10:25:36;;;;;;;11.77;6.10;;;512.70;1587.20;;;;;;4863407;29;20030;-76
2022/04/06 10:28:09;;;;;;;12.20;8.30;;;537.60;1536.00;;;;;;4861962;29;20034;-77
2022/04/06 10:30:35;;;;;;;15.52;7.05;;;538.00;1561.60;;;;;;4845677;29;20113;-77
2022/04/06 10:33:16;;;;;;;12.40;6.43;;;538.10;1484.80;;;;;;4862590;29;20026;-77
2022/04/06 10:35:42;;;;;;;8.07;5.43;;;538.30;1459.20;;;;;;4862903;29;20029;-76
2022/04/06 10:38:08;;;;;;;13.80;5.65;;;563.20;1484.80;;;;;;4846138;29;20054;-77
2022/04/06 10:40:46;;;;;;;9.38;5.00;;;563.50;1484.80;;;;;;4862752;29;20041;-76
2022/04/06 10:43:38;;;;;;;9.38;6.90;;;563.50;1459.20;;;;;;4845900;29;20037;-79
2022/04/06 10:46:08;;;;;;;8.93;5.00;;;563.90;1459.20;;;;;;4846053;29;20149;-78
2022/04/06 10:48:35;;;;;;;14.27;6.43;;;564.00;1433.60;;;;;;4846111;29;20037;-78
2022/04/06 10:51:27;;;;;;;8.35;6.30;;;588.80;1433.60;;;;;;4845699;29;20466;-77
2022/04/06 10:53:53;;;;;;;8.88;5.72;;;589.20;1408.00;;;;;;4846082;29;20029;-77
2022/04/06 10:56:19;;;;;;;13.18;9.25;;;589.50;1356.80;;;;;;4845826;29;20513;-76
2022/04/06 10:58:57;;;;;;;13.48;7.13;;;589.60;1331.20;;;;;;4845553;29;20029;-78
2022/04/06 11:01:26;;;;;;;13.07;6.88;;;614.40;1356.80;;;;;;4846043;29;20049;-78
2022/04/06 11:04:00;;;;;;;8.32;5.25;;;614.50;1331.20;;;;;;4845420;29;20029;-77
2022/04/06 11:06:56;;;;;;;11.23;7.60;;;614.50;1305.60;;;;;;4845922;29;20033;-80
2022/04/06 11:12:23;;;;;;;10.07;6.63;;;615.00;1331.20;;;;;;4861782;29;20094;-76
2022/04/06 11:14:59;;;;;;;11.63;6.88;;;615.00;1305.60;;;;;;4845523;29;20033;-79
2022/04/06 11:17:44;;;;;;;10.85;6.53;;;615.30;1305.60;;;;;;4862502;29;20356;-79
2022/04/06 11:20:14;;;;;;;7.57;4.68;;;640.00;1280.00;;;;;;4845507;29;20037;-76
2022/04/06 11:22:45;;;;;;;7.65;4.38;;;640.10;1254.40;;;;;;4845396;29;20059;-76
2022/04/06 11:25:16;;;;;;;7.18;4.50;;;640.20;1254.40;;;;;;4845018;29;20093;-76
2022/04/06 11:27:44;;;;;;;9.20;5.78;;;640.40;1254.40;;;;;;4862105;29;20029;-75
2022/04/06 11:30:13;;;;;;;11.48;4.63;;;640.40;1228.80;;;;;;4845042;29;20057;-77
2022/04/06 11:32:50;;;;;;;6.30;3.85;;;640.50;1228.80;;;;;;4861651;29;20030;-76
2022/04/06 11:35:16;;;;;;;7.63;4.22;;;640.70;1228.80;;;;;;4845307;29;20033;-77
2022/04/06 11:37:49;;;;;;;7.05;4.55;;;640.70;1228.80;;;;;;4844987;29;20070;-75
2022/04/06 11:40:17;;;;;;;7.53;4.70;;;665.60;1254.40;;;;;;4844847;29;20038;-75
2022/04/06 11:42:47;;;;;;;7.15;4.93;;;665.70;1228.80;;;;;;4844482;29;20042;-76
2022/04/06 11:45:20;;;;;;;7.75;5.53;;;665.70;1228.80;;;;;;4845052;29;20030;-77
2022/04/06 11:47:51;;;;;;;;;;;665.70;1228.80;;;;;;4845594;29;20033;-76
2022/04/06 11:50:16;;;;;;;9.15;6.40;;;665.90;1228.80;;;;;;4861486;29;20002;-76
2022/04/06 11:52:43;;;;;;;10.45;5.80;;;665.90;1228.80;;;;;;4845753;29;20128;-75
2022/04/06 11:55:09;;;;;;;10.30;4.40;;;665.90;1203.20;;;;;;4845755;29;20029;-79
2022/04/06 11:57:42;;;;;;;6.82;3.58;;;666.10;1203.20;;;;;;4861144;29;20025;-75
2022/04/06 12:00:11;;;;;;;7.63;4.55;;;666.10;1203.20;;;;;;4844890;29;20489;-76
2022/04/06 12:02:54;;;;;;;8.93;5.38;;;666.30;1203.20;;;;;;4861594;29;20021;-77
2022/04/06 12:05:24;;;;;;;11.73;5.22;;;666.10;1203.20;;;;;;4847339;29;20033;-76
2022/04/06 12:08:25;;;;;;;8.00;5.30;;;666.40;1203.20;;;;;;4844942;29;20040;-77
2022/04/06 12:10:53;;;;;;;13.57;10.40;;;666.50;1203.20;;;;;;4822222;29;20038;-76
2022/04/06 12:13:21;;;;;;;10.15;7.63;;;691.20;1203.20;;;;;;4853025;29;20048;-76
2022/04/06 12:15:48;;;;;;;15.18;9.57;;;691.30;1203.20;;;;;;4844853;29;20034;-78
2022/04/06 12:18:25;;;;;;;16.92;12.10;;;666.50;1203.20;;;;;;4844297;29;20053;-79
2022/04/06 12:20:51;;;;;;;15.73;11.23;;;691.40;1203.20;;;;;;4844750;29;20033;-76
2022/04/06 12:23:18;;;;;;;11.43;7.55;;;691.40;1177.60;;;;;;4844621;29;20374;-77
2022/04/06 12:25:44;;;;;;;11.40;7.40;;;691.30;1203.20;;;;;;4844361;29;20033;-77
2022/04/06 12:28:12;;;;;;;12.50;6.80;;;691.60;1203.20;;;;;;4844502;29;20535;-78
2022/04/06 12:30:59;;;;;;;8.70;6.13;;;691.60;1203.20;;;;;;4851047;29;20140;-78
2022/04/06 12:33:37;;;;;;;10.05;6.38;;;691.70;1177.60;;;;;;4844372;29;20026;-76
2022/04/06 12:36:14;;;;;;;9.65;5.32;;;691.80;1177.60;;;;;;4860294;29;20040;-78
2022/04/06 12:39:01;;;;;;;14.45;6.63;;;692.00;1203.20;;;;;;4843889;29;20046;-76
2022/04/06 12:41:33;;;;;;;13.07;6.53;;;692.10;1203.20;;;;;;4840895;29;20041;-77
2022/04/06 12:44:02;;;;;;;9.32;5.00;;;691.90;1177.60;;;;;;4844402;29;20037;-78
2022/04/06 12:46:44;;;;;;;9.00;6.43;;;692.10;1203.20;;;;;;4843997;29;20040;-79
2022/04/06 12:49:17;;;;;;;;;;;716.80;1254.40;;;;;;4861370;29;20120;-78
2022/04/06 12:51:42;;;;;;;11.48;6.65;;;692.10;1203.20;;;;;;4846459;29;19908;-76
2022/04/06 12:54:08;;;;;;;9.88;6.97;;;692.10;1203.20;;;;;;4864493;29;20116;-75
2022/04/06 12:56:34;;;;;;;10.10;6.15;;;692.10;1203.20;;;;;;4864316;29;20025;-78
2022/04/06 12:59:11;;;;;;;9.75;4.88;;;692.10;1203.20;;;;;;4847721;29;20040;-78
2022/04/06 13:01:47;;;;;;;7.85;5.95;;;692.10;1203.20;;;;;;4847784;29;20127;-77
2022/04/06 13:04:13;;;;;;;10.55;6.47;;;716.90;1228.80;;;;;;4847724;29;20381;-77
2022/04/06 13:06:39;;;;;;;8.63;6.05;;;692.10;1203.20;;;;;;4847285;29;20030;-77
2022/04/06 13:09:12;;;;;;;9.68;4.63;;;716.80;1228.80;;;;;;4847556;29;20033;-77
2022/04/06 13:11:38;;;;;;;11.10;6.30;;;691.90;1177.60;;;;;;4847624;29;20471;-79
2022/04/06 13:14:04;;;;;;;8.07;4.82;;;716.80;1228.80;;;;;;4847331;29;20034;-76
2022/04/06 13:16:30;;;;;;;8.48;5.40;;;716.90;1203.20;;;;;;4847756;29;20062;-78
2022/04/06 13:18:56;;;;;;;16.08;12.00;;;692.00;1177.60;;;;;;4863872;29;20036;-77
2022/04/06 13:21:25;;;;;;;8.63;5.03;;;691.70;1177.60;;;;;;4847336;29;20115;-76
2022/04/06 13:28:02;;;;;;;9.18;4.82;;;691.90;1177.60;;;;;;4858409;29;20037;-78
2022/04/06 13:31:22;;;;;;;8.90;4.53;;;692.00;1152.00;;;;;;4843662;29;20098;-78
2022/04/06 13:37:43;;;;;;;9.25;5.97;;;717.30;1228.80;;;;;;4863647;29;20025;-78
2022/04/06 15:15:35;;;;;;;8.10;3.83;;;665.80;1126.40;;;;;;4861891;29;20081;-77
2022/04/06 15:18:03;;;;;;;10.43;4.43;;;666.10;1126.40;;;;;;4845162;29;20042;-78
2022/04/06 15:20:29;;;;;;;9.20;4.45;;;666.20;1126.40;;;;;;4844902;29;20032;-77
2022/04/06 16:33:14;;;;;;;10.43;6.70;;;563.40;1305.60;;;;;;5505331;23;20076;-78
2022/04/06 16:35:40;;;;;;;11.15;6.97;;;563.30;1305.60;;;;;;4864759;29;20471;-79
2022/04/06 16:38:06;;;;;;;13.90;8.45;;;563.20;1305.60;;;;;;4848062;29;20549;-77
2022/04/06 16:40:32;;;;;;;18.95;8.23;;;563.20;1331.20;;;;;;4848253;29;20471;-79
2022/04/06 16:42:58;;;;;;;15.10;9.15;;;538.50;1305.60;;;;;;4848230;29;20038;-80
2022/04/06 16:45:23;;;;;;;12.10;7.30;;;538.50;1305.60;;;;;;4864663;29;20108;-77
2022/04/06 16:47:49;;;;;;;18.13;9.52;;;538.40;1305.60;;;;;;4847947;29;20042;-77
2022/04/06 16:52:59;;;;;;;15.93;9.65;;;538.30;1305.60;;;;;;4864751;29;20065;-78
2022/04/06 16:55:25;;;;;;;17.90;11.85;;;537.90;1305.60;;;;;;4847866;29;20033;-77
2022/04/06 16:57:52;;;;;;;19.15;11.60;;;538.10;1331.20;;;;;;4847792;29;20051;-76
2022/04/06 17:00:19;;;;;;;14.50;10.48;;;538.10;1331.20;;;;;;4864608;29;20037;-79
2022/04/06 17:02:47;;;;;;;10.95;8.35;;;538.00;1331.20;;;;;;4847996;29;20033;-77
2022/04/06 17:05:17;;;;;;;14.25;8.05;;;537.90;1331.20;;;;;;4847672;29;20093;-76
2022/04/06 17:07:43;;;;;;;18.95;11.32;;;537.80;1331.20;;;;;;4848039;29;20113;-80
2022/04/06 17:10:11;;;;;;;14.30;9.07;;;537.70;1331.20;;;;;;4847681;29;20497;-80
2022/04/06 17:12:38;;;;;;;15.82;7.82;;;537.60;1331.20;;;;;;4847487;29;20056;-77
2022/04/06 17:15:05;;;;;;;9.30;6.40;;;512.90;1305.60;;;;;;4847721;29;20040;-79
2022/04/06 17:17:31;;;;;;;9.35;6.43;;;512.80;1305.60;;;;;;4847934;29;20057;-78
2022/04/06 17:19:58;;;;;;;10.07;5.90;;;512.70;1305.60;;;;;;4847606;29;20076;-76
2022/04/06 17:22:24;;;;;;;12.23;7.25;;;512.60;1305.60;;;;;;4847787;29;20128;-79
2022/04/06 17:24:50;;;;;;;16.25;8.82;;;512.50;1305.60;;;;;;4847637;29;20468;-76
2022/04/06 17:27:16;;;;;;;10.35;6.05;;;512.40;1331.20;;;;;;4847325;29;20458;-76